createdAt,value
2023-01-26T00:03:57.379Z,30.52
2023-01-26T00:08:59.024Z,29.60
2023-01-26T00:14:01.175Z,29.48
2023-01-26T00:19:03.209Z,29.25
2023-01-26T00:24:05.084Z,27.70
2023-01-26T00:29:06.570Z,31.67
2023-01-26T00:34:08.052Z,35.53
2023-01-26T00:39:09.599Z,34.88
2023-01-26T00:44:11.127Z,33.42
2023-01-26T00:49:12.665Z,34.10
2023-01-26T00:54:14.269Z,33.55
2023-01-26T00:59:15.759Z,35.13
2023-01-26T01:04:17.468Z,35.92
2023-01-26T01:09:18.957Z,35.90
2023-01-26T01:14:20.438Z,35.72
2023-01-26T01:19:21.979Z,32.95
2023-01-26T01:24:23.525Z,33.97
2023-01-26T01:29:25.215Z,31.88
2023-01-26T01:34:26.742Z,31.30
2023-01-26T01:39:28.290Z,28.58
2023-01-26T01:44:29.875Z,30.27
2023-01-26T01:49:42.884Z,32.88
2023-01-26T01:55:07.277Z,33.50
2023-01-26T02:00:10.127Z,33.90
2023-01-26T02:05:26.981Z,33.08
2023-01-26T02:10:30.085Z,32.67
2023-01-26T02:15:31.756Z,34.15
2023-01-26T02:20:50.629Z,33.42
2023-01-26T02:25:52.900Z,30.95
2023-01-26T02:30:56.021Z,29.23
2023-01-26T02:35:58.019Z,30.40
2023-01-26T02:41:05.667Z,28.35
2023-01-26T02:46:07.290Z,29.10
2023-01-26T02:51:09.232Z,29.02
2023-01-26T02:56:10.699Z,29.33
2023-01-26T03:01:12.321Z,28.45
2023-01-26T03:06:15.256Z,28.45
2023-01-26T03:11:16.711Z,29.50
2023-01-26T03:16:18.643Z,29.33
2023-01-26T03:21:39.163Z,27.88
2023-01-26T03:26:59.428Z,28.10
2023-01-26T03:32:01.169Z,27.63
2023-01-26T03:37:02.781Z,25.50
2023-01-26T03:42:23.249Z,25.20
2023-01-26T03:47:42.935Z,24.45
2023-01-26T03:53:02.844Z,24.95
2023-01-26T03:58:04.376Z,25.27
2023-01-26T04:03:24.570Z,25.42
2023-01-26T04:08:28.638Z,25.75
2023-01-26T04:13:48.664Z,25.77
2023-01-26T04:19:09.079Z,25.30
2023-01-26T04:24:16.793Z,24.33
2023-01-26T04:29:18.756Z,25.33
2023-01-26T04:34:20.369Z,27.90
2023-01-26T04:39:21.866Z,26.25
2023-01-26T04:44:23.371Z,25.30
2023-01-26T04:49:25.017Z,23.20
2023-01-26T04:54:26.498Z,13.07
2023-01-26T04:59:28.317Z,9.02
2023-01-26T05:04:29.939Z,7.35
2023-01-26T05:09:31.485Z,6.55
2023-01-26T05:14:33.033Z,5.88
2023-01-26T05:19:34.512Z,5.70
2023-01-26T05:24:36.038Z,7.65
2023-01-26T05:29:37.564Z,5.47
2023-01-26T05:34:39.077Z,5.28
2023-01-26T05:39:40.561Z,5.47
2023-01-26T05:44:42.074Z,6.55
2023-01-26T05:49:45.694Z,6.30
2023-01-26T05:54:47.546Z,5.55
2023-01-26T05:59:49.044Z,6.03
2023-01-26T06:04:50.631Z,5.05
2023-01-26T06:09:52.606Z,5.10
2023-01-26T06:14:54.117Z,5.63
2023-01-26T06:19:55.685Z,5.18
2023-01-26T06:24:57.189Z,5.68
2023-01-26T06:29:58.691Z,5.43
2023-01-26T06:35:00.258Z,5.72
2023-01-26T06:40:01.753Z,4.53
2023-01-26T06:45:03.487Z,6.10
2023-01-26T06:50:05.342Z,5.22
2023-01-26T06:55:17.211Z,5.18
2023-01-26T07:00:19.280Z,5.07
2023-01-26T07:05:20.835Z,5.55
2023-01-26T07:10:22.395Z,5.22
2023-01-26T07:15:23.911Z,7.10
2023-01-26T07:20:25.872Z,4.60
2023-01-26T07:25:28.007Z,6.15
2023-01-26T07:30:29.547Z,4.22
2023-01-26T07:35:31.091Z,4.63
2023-01-26T07:40:32.855Z,5.20
2023-01-26T07:45:36.016Z,5.15
2023-01-26T07:50:37.571Z,5.18
2023-01-26T07:55:39.130Z,5.03
2023-01-26T08:00:40.925Z,5.75
2023-01-26T08:05:43.340Z,6.25
2023-01-26T08:10:45.023Z,5.88
2023-01-26T08:15:46.499Z,6.40
2023-01-26T08:20:55.051Z,6.63
2023-01-26T08:26:01.819Z,4.85
2023-01-26T08:31:13.237Z,4.85
2023-01-26T08:36:15.546Z,5.05
2023-01-26T08:41:17.068Z,4.75
2023-01-26T08:46:18.753Z,5.05
2023-01-26T08:51:20.357Z,4.55
2023-01-26T08:56:21.981Z,5.53
2023-01-26T09:01:23.567Z,6.72
2023-01-26T09:06:25.427Z,5.38
2023-01-26T09:11:26.971Z,5.35
2023-01-26T09:16:28.459Z,5.00
2023-01-26T09:21:29.930Z,4.93
2023-01-26T09:26:31.712Z,5.53
2023-01-26T09:31:33.335Z,4.40
2023-01-26T09:36:34.987Z,4.97
2023-01-26T09:41:56.005Z,4.03
2023-01-26T09:47:09.321Z,3.88
2023-01-26T09:52:20.693Z,7.18
2023-01-26T09:57:32.834Z,4.68
2023-01-26T10:02:43.549Z,5.15
2023-01-26T10:07:46.139Z,7.32
2023-01-26T10:12:51.488Z,4.47
2023-01-26T10:17:55.054Z,5.20
2023-01-26T10:23:04.395Z,4.00
2023-01-26T10:28:26.246Z,4.28
2023-01-26T10:33:34.862Z,5.47
2023-01-26T10:38:36.345Z,4.32
2023-01-26T10:43:42.164Z,4.30
2023-01-26T10:48:52.669Z,5.45
2023-01-26T10:54:13.275Z,5.55
2023-01-26T10:59:25.938Z,4.88
2023-01-26T11:04:28.712Z,4.82
2023-01-26T11:09:31.739Z,4.80
2023-01-26T11:14:34.707Z,5.30
2023-01-26T11:19:58.026Z,4.63
2023-01-26T11:25:15.608Z,4.65
2023-01-26T11:30:19.979Z,3.92
2023-01-26T11:35:36.545Z,4.15
2023-01-26T11:41:03.897Z,4.35
2023-01-26T11:46:24.863Z,4.13
2023-01-26T11:51:49.658Z,4.50
2023-01-26T11:56:56.877Z,4.72
2023-01-26T12:02:17.222Z,3.40
2023-01-26T12:07:29.754Z,4.72
2023-01-26T12:12:45.915Z,3.28
2023-01-26T12:18:15.489Z,3.13
2023-01-26T12:24:02.143Z,3.20
2023-01-26T12:29:41.489Z,4.38
2023-01-26T12:34:43.110Z,3.90
2023-01-26T12:39:48.584Z,4.82
2023-01-26T12:45:01.729Z,3.28
2023-01-26T12:50:16.346Z,4.20
2023-01-26T12:55:26.531Z,3.17
2023-01-26T13:00:34.394Z,2.17
2023-01-26T13:05:36.429Z,2.85
2023-01-26T13:10:48.355Z,3.25
2023-01-26T13:16:15.529Z,4.07
2023-01-26T13:21:27.152Z,2.55
2023-01-26T13:26:31.637Z,3.35
2023-01-26T13:31:34.220Z,2.28
2023-01-26T13:36:38.274Z,2.50
2023-01-26T13:41:48.660Z,3.35
2023-01-26T13:47:02.000Z,3.72
2023-01-26T13:52:14.976Z,2.55
2023-01-26T13:57:25.565Z,3.45
2023-01-26T14:02:31.328Z,2.17
2023-01-26T14:07:34.753Z,2.20
2023-01-26T14:12:42.984Z,2.63
2023-01-26T14:17:59.275Z,2.58
2023-01-26T14:23:18.866Z,2.55
2023-01-26T14:28:22.368Z,2.40
2023-01-26T14:33:24.890Z,2.65
2023-01-26T14:38:28.932Z,1.52
2023-01-26T14:43:30.534Z,3.65
2023-01-26T14:48:41.125Z,2.30
2023-01-26T14:53:50.510Z,1.60
2023-01-26T14:58:54.234Z,1.90
2023-01-26T15:04:14.736Z,1.80
2023-01-26T15:09:28.807Z,2.75
2023-01-26T15:14:50.180Z,2.28
2023-01-26T15:19:53.671Z,3.40
2023-01-26T15:25:20.516Z,4.00
2023-01-26T15:30:26.907Z,2.65
2023-01-26T15:35:31.826Z,2.20
2023-01-26T15:40:33.377Z,3.35
2023-01-26T15:45:36.330Z,3.67
2023-01-26T15:50:37.899Z,2.80
2023-01-26T15:55:39.506Z,4.95
2023-01-26T16:00:41.096Z,3.85
2023-01-26T16:05:42.648Z,2.53
2023-01-26T16:10:45.163Z,2.88
2023-01-26T16:15:52.022Z,3.88
2023-01-26T16:20:53.532Z,2.93
2023-01-26T16:25:56.277Z,3.53
2023-01-26T16:31:01.423Z,2.92
2023-01-26T16:36:04.383Z,2.90
2023-01-26T16:41:06.642Z,3.08
2023-01-26T16:46:08.343Z,3.50
2023-01-26T16:51:19.232Z,4.10
2023-01-26T16:56:21.724Z,3.78
2023-01-26T17:01:30.697Z,3.30
2023-01-26T17:06:32.292Z,3.60
2023-01-26T17:11:33.872Z,3.80
2023-01-26T17:16:36.262Z,3.67
2023-01-26T17:21:37.841Z,3.50
2023-01-26T17:26:41.013Z,3.55
2023-01-26T17:31:42.660Z,3.60
2023-01-26T17:36:45.922Z,3.05
2023-01-26T17:41:47.620Z,4.57
2023-01-26T17:46:49.201Z,5.18
2023-01-26T17:51:51.012Z,3.67
2023-01-26T17:56:52.522Z,3.60
2023-01-26T18:01:54.297Z,4.32
2023-01-26T18:06:55.801Z,2.92
2023-01-26T18:11:57.373Z,3.60
2023-01-26T18:16:58.939Z,4.10
2023-01-26T18:22:00.460Z,4.25
2023-01-26T18:27:02.288Z,3.13
2023-01-26T18:32:04.617Z,4.53
2023-01-26T18:37:06.581Z,5.43
2023-01-26T18:42:08.147Z,7.30
2023-01-26T18:47:09.631Z,3.42
2023-01-26T18:52:11.142Z,4.40
2023-01-26T18:57:12.824Z,6.20
2023-01-26T19:02:14.947Z,3.90
2023-01-26T19:07:16.455Z,4.75
2023-01-26T19:12:17.934Z,5.57
2023-01-26T19:17:19.428Z,5.00
2023-01-26T19:22:21.596Z,5.78
2023-01-26T19:27:23.120Z,4.50
2023-01-26T19:32:24.666Z,5.43
2023-01-26T19:37:26.157Z,8.93
2023-01-26T19:42:27.703Z,5.30
2023-01-26T19:47:29.223Z,5.07
2023-01-26T19:52:30.774Z,6.15
2023-01-26T19:57:32.720Z,4.60
2023-01-26T20:02:34.336Z,5.25
2023-01-26T20:07:37.685Z,5.82
2023-01-26T20:12:39.215Z,5.13
2023-01-26T20:17:42.204Z,6.35
2023-01-26T20:22:43.744Z,4.25
2023-01-26T20:27:45.341Z,4.13
2023-01-26T20:32:46.955Z,4.47
2023-01-26T20:37:48.590Z,4.95
2023-01-26T20:42:50.222Z,4.22
2023-01-26T20:47:52.933Z,4.82
2023-01-26T20:52:54.887Z,4.55
2023-01-26T20:57:56.443Z,3.92
2023-01-26T21:02:57.986Z,4.05
2023-01-26T21:07:59.507Z,4.60
2023-01-26T21:13:02.000Z,5.05
2023-01-26T21:18:04.077Z,4.90
2023-01-26T21:23:05.641Z,3.50
2023-01-26T21:28:07.179Z,4.43
2023-01-26T21:33:08.692Z,4.05
2023-01-26T21:38:10.206Z,3.67
2023-01-26T21:43:11.748Z,4.07
2023-01-26T21:48:28.306Z,4.03
2023-01-26T21:53:29.863Z,4.20
2023-01-26T21:58:49.765Z,4.07
2023-01-26T22:03:54.895Z,5.43
2023-01-26T22:08:58.509Z,3.55
2023-01-26T22:14:00.915Z,3.25
2023-01-26T22:19:03.523Z,3.08
2023-01-26T22:24:06.017Z,3.88
2023-01-26T22:29:07.714Z,3.42
2023-01-26T22:34:10.680Z,3.17
2023-01-26T22:39:12.545Z,3.67
2023-01-26T22:44:14.029Z,3.35
2023-01-26T22:49:15.531Z,3.60
2023-01-26T22:54:17.032Z,2.47
2023-01-26T22:59:18.510Z,3.17
2023-01-26T23:04:20.006Z,2.55
2023-01-26T23:09:21.499Z,3.03
2023-01-26T23:14:23.023Z,2.55
2023-01-26T23:19:25.087Z,4.72
2023-01-26T23:24:26.670Z,2.80
2023-01-26T23:29:28.209Z,2.65
2023-01-26T23:34:29.718Z,3.58
2023-01-26T23:39:31.199Z,3.20
2023-01-26T23:44:32.656Z,2.95
2023-01-26T23:49:34.110Z,2.95
2023-01-26T23:54:35.605Z,2.55
2023-01-26T23:59:37.047Z,2.63
